createdAt,value
2022-12-05T00:02:21.228Z,28.3
2022-12-05T00:07:43.890Z,27.9
2022-12-05T00:13:06.496Z,27.3
2022-12-05T00:18:29.397Z,26.9
2022-12-05T00:24:07.457Z,26.4
2022-12-05T00:29:44.674Z,26
2022-12-05T00:35:06.535Z,25.9
2022-12-05T00:40:43.552Z,26.8
2022-12-05T00:46:29.547Z,28
2022-12-05T00:51:52.083Z,27.9
2022-12-05T00:57:29.561Z,26.8
2022-12-05T01:03:08.209Z,26.3
2022-12-05T01:08:31.217Z,25.8
2022-12-05T01:13:56.736Z,25.8
2022-12-05T01:19:19.463Z,26.8
2022-12-05T01:24:57.152Z,27.9
2022-12-05T01:30:20.166Z,27.9
2022-12-05T01:35:58.573Z,26.8
2022-12-05T01:41:21.048Z,26.1
2022-12-05T01:46:47.856Z,25.8
2022-12-05T01:52:10.699Z,25.3
2022-12-05T01:57:33.099Z,25.6
2022-12-05T02:03:11.504Z,26.8
2022-12-05T02:19:21.310Z,26.6
2022-12-05T02:24:59.200Z,26.1
2022-12-05T02:30:36.502Z,25.6
2022-12-05T02:35:57.946Z,25.5
2022-12-05T02:41:36.395Z,26.4
2022-12-05T02:47:14.322Z,27.7
2022-12-05T02:52:51.779Z,27.9
2022-12-05T02:58:29.625Z,26.7
2022-12-05T03:04:07.222Z,26
2022-12-05T03:09:45.531Z,25.6
2022-12-05T03:15:07.883Z,25.4
2022-12-05T03:20:46.442Z,26.6
2022-12-05T03:26:24.086Z,27.8
2022-12-05T03:31:47.298Z,27.9
2022-12-05T03:37:23.918Z,26.7
2022-12-05T03:42:46.995Z,26
2022-12-05T03:48:25.852Z,25.6
2022-12-05T03:54:23.334Z,25.4
2022-12-05T04:00:00.760Z,26.4
2022-12-05T04:05:24.095Z,27.7
2022-12-05T04:11:02.384Z,27.9
2022-12-05T04:16:40.148Z,26.8
2022-12-05T04:22:19.509Z,26.1
2022-12-05T04:27:26.687Z,25.6
2022-12-05T04:32:49.508Z,25.1
2022-12-05T04:38:12.110Z,25.4
2022-12-05T04:43:24.201Z,26.7
2022-12-05T04:48:15.902Z,27.7
2022-12-05T04:53:44.578Z,27.9
2022-12-05T04:59:28.091Z,27
2022-12-05T05:05:09.507Z,26.1
2022-12-05T05:10:50.174Z,25.4
2022-12-05T05:16:28.780Z,25
2022-12-05T05:22:06.376Z,25.5
2022-12-05T05:27:47.082Z,27
2022-12-05T05:33:09.192Z,27.1
2022-12-05T05:38:52.081Z,26
2022-12-05T05:44:36.790Z,25.4
2022-12-05T05:50:19.643Z,25.1
2022-12-05T05:55:58.851Z,24.7
2022-12-05T06:01:15.298Z,24.4
2022-12-05T06:06:59.204Z,25
2022-12-05T06:12:37.314Z,26.5
2022-12-05T06:18:15.820Z,27.1
2022-12-05T06:23:59.900Z,26.5
2022-12-05T06:29:42.242Z,25.5
2022-12-05T06:35:20.363Z,25.1
2022-12-05T06:40:57.825Z,24.8
2022-12-05T06:46:35.835Z,24.4
2022-12-05T06:52:03.249Z,24.7
2022-12-05T06:57:40.694Z,25.9
2022-12-05T07:03:20.170Z,27
2022-12-05T07:09:04.099Z,26.8
2022-12-05T07:15:07.511Z,25.5
2022-12-05T07:21:14.723Z,25
2022-12-05T07:26:57.808Z,24.6
2022-12-05T07:32:27.670Z,24.3
2022-12-05T07:38:05.207Z,24.4
2022-12-05T07:43:44.359Z,25.5
2022-12-05T07:49:24.823Z,26.8
2022-12-05T07:55:02.172Z,26.9
2022-12-05T08:00:41.263Z,26.5
2022-12-05T08:06:24.367Z,26.1
2022-12-05T08:12:08.731Z,25.7
2022-12-05T08:17:46.346Z,25.3
2022-12-05T08:23:11.174Z,24.6
2022-12-05T08:28:49.413Z,25.8
2022-12-05T08:34:15.740Z,26.9
2022-12-05T08:39:55.363Z,26.9
2022-12-05T08:45:33.621Z,26.5
2022-12-05T08:51:15.987Z,26.1
2022-12-05T08:56:59.576Z,25.7
2022-12-05T09:02:42.569Z,25.3
2022-12-05T09:08:46.964Z,24.8
2022-12-05T09:14:24.804Z,26.5
2022-12-05T09:20:05.135Z,27.1
2022-12-05T09:25:47.080Z,26.7
2022-12-05T09:31:30.433Z,26.3
2022-12-05T09:37:37.314Z,25.8
2022-12-05T09:43:15.232Z,25.4
2022-12-05T09:48:54.428Z,24.6
2022-12-05T09:54:36.525Z,25.4
2022-12-05T10:00:20.748Z,26.8
2022-12-05T10:06:06.117Z,26.9
2022-12-05T10:11:44.558Z,26.4
2022-12-05T10:17:25.985Z,25.8
2022-12-05T10:23:18.685Z,25.4
2022-12-05T10:29:19.993Z,24.9
2022-12-05T10:35:06.270Z,24.5
2022-12-05T10:40:50.613Z,26
2022-12-05T10:46:33.407Z,26.9
2022-12-05T10:52:11.684Z,26.7
2022-12-05T10:58:32.027Z,26.1
2022-12-05T11:04:15.817Z,25.6
2022-12-05T11:10:27.053Z,25.1
2022-12-05T11:16:11.635Z,24.6
2022-12-05T11:21:50.020Z,26.2
2022-12-05T11:27:31.461Z,27
2022-12-05T11:33:13.896Z,26.7
2022-12-05T11:38:52.650Z,26.3
2022-12-05T11:44:22.217Z,25.9
2022-12-05T11:49:48.064Z,25.5
2022-12-05T11:56:02.407Z,24.7
2022-12-05T12:01:45.072Z,25.7
2022-12-05T12:07:27.228Z,26.9
2022-12-05T12:13:10.712Z,26.8
2022-12-05T12:18:55.318Z,26.3
2022-12-05T12:24:38.613Z,25.8
2022-12-05T12:30:19.053Z,25.4
2022-12-05T12:35:43.025Z,24.6
2022-12-05T12:41:22.298Z,25.5
2022-12-05T12:47:34.784Z,26.9
2022-12-05T12:53:14.474Z,26.9
2022-12-05T12:59:32.106Z,26.4
2022-12-05T13:05:15.551Z,25.9
2022-12-05T13:10:57.803Z,25.4
2022-12-05T13:16:20.982Z,24.7
2022-12-05T13:21:47.439Z,25.8
2022-12-05T13:27:30.328Z,27.1
2022-12-05T13:33:00.808Z,27.1
2022-12-05T13:38:43.538Z,26.6
2022-12-05T13:44:37.940Z,26.1
2022-12-05T13:50:21.858Z,25.7
2022-12-05T13:56:05.277Z,24.9
2022-12-05T14:01:46.583Z,25.9
2022-12-05T14:07:26.533Z,27.2
2022-12-05T14:13:04.618Z,27
2022-12-05T14:18:47.849Z,26.5
2022-12-05T14:24:32.558Z,26.1
2022-12-05T14:30:23.608Z,25.6
2022-12-05T14:36:02.256Z,24.8
2022-12-05T14:41:43.386Z,26.1
2022-12-05T14:47:12.708Z,27.2
2022-12-05T14:52:43.331Z,27
2022-12-05T14:58:28.380Z,26.6
2022-12-05T15:04:08.727Z,26.1
2022-12-05T15:10:24.327Z,25.6
2022-12-05T15:16:03.829Z,24.9
2022-12-05T15:21:46.220Z,26.6
2022-12-05T15:27:55.431Z,27.2
2022-12-05T15:33:18.249Z,26.8
2022-12-05T15:39:00.477Z,26.3
2022-12-05T15:44:47.057Z,25.9
2022-12-05T15:50:24.787Z,25.2
2022-12-05T15:56:08.778Z,25.6
2022-12-05T16:01:50.467Z,27.1
2022-12-05T16:07:33.102Z,27.1
2022-12-05T16:13:16.439Z,26.6
2022-12-05T16:19:29.276Z,26.1
2022-12-05T16:24:57.793Z,25.6
2022-12-05T16:30:35.389Z,24.9
2022-12-05T16:36:14.424Z,26.5
2022-12-05T16:41:52.907Z,27.2
2022-12-05T16:47:38.634Z,26.8
2022-12-05T16:53:22.588Z,26.3
2022-12-05T16:58:29.567Z,25.9
2022-12-05T17:04:22.833Z,25.4
2022-12-05T17:10:04.952Z,24.8
2022-12-05T17:15:45.750Z,26.4
2022-12-05T17:21:14.893Z,27.2
2022-12-05T17:26:53.058Z,26.9
2022-12-05T17:32:06.339Z,26.5
2022-12-05T17:37:44.258Z,26.1
2022-12-05T17:43:25.203Z,25.8
2022-12-05T17:49:04.803Z,24.9
2022-12-05T17:54:53.592Z,26.6
2022-12-05T18:00:15.084Z,27.1
2022-12-05T18:05:42.231Z,26.8
2022-12-05T18:11:04.599Z,26.4
2022-12-05T18:16:16.684Z,25.9
2022-12-05T18:21:24.255Z,25.1
2022-12-05T18:26:32.991Z,25.2
2022-12-05T18:32:14.341Z,26.8
2022-12-05T18:37:43.314Z,26.9
2022-12-05T18:43:21.456Z,26.6
2022-12-05T18:49:16.724Z,26.1
2022-12-05T18:55:03.317Z,25.6
2022-12-05T19:01:37.212Z,24.8
2022-12-05T19:07:19.059Z,26.2
2022-12-05T19:12:57.631Z,27.1
2022-12-05T19:18:06.880Z,26.8
2022-12-05T19:23:17.399Z,26.4
2022-12-05T19:28:55.785Z,26
2022-12-05T19:34:37.695Z,25.6
2022-12-05T19:39:46.838Z,25
2022-12-05T19:45:30.064Z,26.6
2022-12-05T19:50:54.108Z,27.2
2022-12-05T19:56:32.676Z,26.9
2022-12-05T20:02:15.321Z,26.4
2022-12-05T20:07:42.452Z,26.1
2022-12-05T20:13:18.164Z,25
2022-12-05T20:19:01.739Z,25.9
2022-12-05T20:24:25.126Z,27.1
2022-12-05T20:30:03.785Z,26.9
2022-12-05T20:35:41.721Z,26.3
2022-12-05T20:41:07.868Z,25.9
2022-12-05T20:46:48.486Z,25.4
2022-12-05T20:52:26.348Z,25
2022-12-05T20:58:05.308Z,26.7
2022-12-05T21:03:49.824Z,27.1
2022-12-05T21:09:28.081Z,25.9
2022-12-05T21:15:08.329Z,25.1
2022-12-05T21:20:47.549Z,24.6
2022-12-05T21:26:25.178Z,24.2
2022-12-05T21:32:03.589Z,23.8
2022-12-05T21:37:25.817Z,24.3
2022-12-05T21:42:49.922Z,25.3
2022-12-05T21:48:09.298Z,26.7
2022-12-05T21:53:47.558Z,27
2022-12-05T21:59:31.416Z,26.7
2022-12-05T22:04:54.190Z,26.2
2022-12-05T22:10:37.409Z,25.2
2022-12-05T22:16:15.090Z,26.9
2022-12-05T22:21:54.024Z,27.8
2022-12-05T22:27:32.257Z,27.8
2022-12-05T22:33:12.648Z,26.3
2022-12-05T22:38:41.087Z,25.5
2022-12-05T22:44:18.816Z,25
2022-12-05T22:49:58.605Z,24.6
2022-12-05T22:55:36.659Z,25.3
2022-12-05T23:01:14.571Z,26.9
2022-12-05T23:06:57.486Z,27.8
2022-12-05T23:12:35.385Z,27.7
2022-12-05T23:18:14.255Z,26.2
2022-12-05T23:23:52.938Z,25.4
2022-12-05T23:29:30.948Z,24.9
2022-12-05T23:35:10.873Z,24.9
2022-12-05T23:40:49.255Z,26.1
2022-12-05T23:46:26.986Z,27.4
2022-12-05T23:52:06.720Z,27.9
2022-12-05T23:57:50.254Z,27.6
